Time;durP1;ratioP1;P1;durP2;ratioP2;P2;SDS_P1;SDS_P2;PMS_P1;PMS_P2;Temp;Humidity;BMP_temperature;BMP_pressure;BME280_temperature;BME280_humidity;BME280_pressure;Samples;Min_cycle;Max_cycle;Signal;HPM_P1;HPM_P2
2022/07/12 00:01:18;;;;;;;0.17;0.17;;;16.70;97.00;;;;;;5092602;28;20032;-82
2022/07/12 00:03:44;;;;;;;0.20;0.20;;;16.60;97.70;;;;;;5094538;28;20028;-82
2022/07/12 00:06:09;;;;;;;0.20;0.20;;;16.50;98.10;;;;;;5094540;28;20032;-82
2022/07/12 00:08:35;;;;;;;1.40;0.57;;;16.40;98.50;;;;;;5094785;28;20032;-81
2022/07/12 00:11:01;;;;;;;0.10;0.10;;;16.40;98.90;;;;;;5096071;28;20077;-82
2022/07/12 00:13:27;;;;;;;0.57;0.20;;;16.30;99.10;;;;;;5095710;28;20024;-82
2022/07/12 00:15:52;;;;;;;0.60;0.20;;;16.30;99.50;;;;;;5096116;28;20055;-81
2022/07/12 00:18:18;;;;;;;0.22;0.10;;;16.10;99.60;;;;;;5095759;28;20027;-82
2022/07/12 00:20:43;;;;;;;0.22;0.20;;;16.00;99.90;;;;;;5095622;28;20482;-82
2022/07/12 00:23:09;;;;;;;0.20;0.20;;;16.00;99.90;;;;;;5095437;28;20087;-81
2022/07/12 00:25:35;;;;;;;0.88;0.20;;;15.90;99.90;;;;;;5095566;28;20107;-82
2022/07/12 00:28:00;;;;;;;0.47;0.25;;;15.90;99.90;;;;;;5094304;28;20020;-81
2022/07/12 00:30:26;;;;;;;0.35;0.35;;;15.80;99.90;;;;;;5095207;28;20028;-82
2022/07/12 00:32:52;;;;;;;0.47;0.30;;;15.60;99.90;;;;;;5094097;28;20463;-81
2022/07/12 00:35:17;;;;;;;0.50;0.20;;;15.50;99.90;;;;;;5094236;28;20028;-82
2022/07/12 00:37:43;;;;;;;0.75;0.20;;;15.50;99.90;;;;;;5093954;28;20027;-82
2022/07/12 00:40:10;;;;;;;0.28;0.10;;;15.40;99.90;;;;;;5095338;28;20020;-82
2022/07/12 00:42:41;;;;;;;0.25;0.20;;;15.30;99.90;;;;;;5093896;28;20089;-82
2022/07/12 00:45:08;;;;;;;0.20;0.20;;;15.20;99.90;;;;;;5094131;28;20454;-82
2022/07/12 00:47:45;;;;;;;0.13;0.13;;;15.20;99.90;;;;;;5094046;28;20494;-81
2022/07/12 00:50:17;;;;;;;0.32;0.20;;;15.10;99.90;;;;;;5095173;28;20028;-82
2022/07/12 00:52:44;;;;;;;0.82;0.30;;;15.00;99.90;;;;;;5094036;28;20020;-81
2022/07/12 00:55:12;;;;;;;1.00;0.43;;;15.00;99.90;;;;;;5095064;28;20055;-82
2022/07/12 00:57:45;;;;;;;0.38;0.32;;;14.90;99.90;;;;;;5093705;28;20586;-82
2022/07/12 01:00:14;;;;;;;0.20;0.17;;;15.00;99.90;;;;;;5093464;28;20038;-82
2022/07/12 01:02:40;;;;;;;0.35;0.28;;;15.00;99.90;;;;;;5094869;28;20077;-81
2022/07/12 01:05:08;;;;;;;0.20;0.20;;;15.00;99.90;;;;;;5093597;28;20044;-82
2022/07/12 01:07:37;;;;;;;0.73;0.38;;;14.90;99.90;;;;;;5093504;28;20024;-82
2022/07/12 01:10:05;;;;;;;1.05;0.20;;;14.90;99.90;;;;;;5093361;28;20028;-81
2022/07/12 01:12:31;;;;;;;0.30;0.30;;;14.90;99.90;;;;;;5094694;28;20074;-81
2022/07/12 01:14:57;;;;;;;0.47;0.22;;;14.90;99.90;;;;;;5094719;28;20028;-82
2022/07/12 01:17:24;;;;;;;0.20;0.20;;;14.80;99.90;;;;;;5094543;28;20034;-82
2022/07/12 01:19:51;;;;;;;0.20;0.15;;;14.70;99.90;;;;;;5093304;28;20391;-81
2022/07/12 01:22:18;;;;;;;0.30;0.22;;;14.60;99.90;;;;;;5093033;28;20020;-82
2022/07/12 01:24:47;;;;;;;0.65;0.40;;;14.60;99.90;;;;;;5094372;28;20115;-81
2022/07/12 01:27:13;;;;;;;1.65;0.30;;;14.60;99.90;;;;;;5093246;28;20460;-81
2022/07/12 01:29:39;;;;;;;0.20;0.20;;;14.60;99.90;;;;;;5093020;28;20020;-82
2022/07/12 01:32:24;;;;;;;0.20;0.20;;;14.60;99.90;;;;;;5094713;28;20024;-80
2022/07/12 01:34:52;;;;;;;2.47;0.40;;;14.60;99.90;;;;;;5092965;28;20024;-82
2022/07/12 01:37:19;;;;;;;0.22;0.22;;;14.60;99.90;;;;;;5093118;28;20027;-82
2022/07/12 01:39:46;;;;;;;0.25;0.20;;;14.50;99.90;;;;;;5094202;28;20028;-82
2022/07/12 01:42:13;;;;;;;0.30;0.30;;;14.50;99.90;;;;;;5092781;28;20047;-82
2022/07/12 01:44:39;;;;;;;0.93;0.40;;;14.40;99.90;;;;;;5093924;28;20456;-82
2022/07/12 01:47:05;;;;;;;0.40;0.40;;;14.30;99.90;;;;;;5092823;28;20331;-82
2022/07/12 01:49:30;;;;;;;0.45;0.30;;;14.30;99.90;;;;;;5092840;28;20463;-82
2022/07/12 01:51:57;;;;;;;0.32;0.32;;;14.20;99.90;;;;;;5092721;28;20460;-82
2022/07/12 01:54:25;;;;;;;1.35;0.20;;;14.20;99.90;;;;;;5094009;28;20036;-82
2022/07/12 01:56:54;;;;;;;1.52;0.35;;;14.20;99.90;;;;;;5094037;28;20031;-82
2022/07/12 01:59:20;;;;;;;0.25;0.25;;;14.30;99.90;;;;;;5093801;28;20024;-82
2022/07/12 02:01:46;;;;;;;0.38;0.38;;;14.20;99.90;;;;;;5092397;28;20184;-82
2022/07/12 02:04:15;;;;;;;0.50;0.50;;;14.30;99.90;;;;;;5093529;28;20128;-83
2022/07/12 02:06:42;;;;;;;0.32;0.30;;;14.30;99.90;;;;;;5092674;28;20028;-82
2022/07/12 02:09:07;;;;;;;0.30;0.30;;;14.30;99.90;;;;;;5093494;28;20020;-82
2022/07/12 02:11:34;;;;;;;1.77;0.75;;;14.30;99.90;;;;;;5092303;28;20023;-82
2022/07/12 02:13:59;;;;;;;1.60;0.22;;;14.30;99.90;;;;;;5092476;28;20031;-82
2022/07/12 02:16:25;;;;;;;0.47;0.47;;;14.30;99.90;;;;;;5092147;28;20016;-82
2022/07/12 02:18:51;;;;;;;1.45;0.30;;;14.30;99.90;;;;;;5092040;28;20031;-82
2022/07/12 02:21:16;;;;;;;0.50;0.40;;;14.30;99.90;;;;;;5092148;28;20153;-82
2022/07/12 02:23:42;;;;;;;0.50;0.40;;;14.40;99.90;;;;;;5091781;28;20127;-82
2022/07/12 02:26:08;;;;;;;3.38;0.30;;;14.30;99.90;;;;;;5091823;28;20027;-81
2022/07/12 02:28:33;;;;;;;0.30;0.30;;;14.30;99.90;;;;;;5091918;28;20024;-82
2022/07/12 02:30:59;;;;;;;0.30;0.30;;;14.30;99.90;;;;;;5091948;28;20021;-82
2022/07/12 02:33:25;;;;;;;0.30;0.30;;;14.30;99.90;;;;;;5091911;28;20070;-83
2022/07/12 02:35:51;;;;;;;2.28;0.60;;;14.40;99.90;;;;;;5091725;28;20467;-82
2022/07/12 02:38:16;;;;;;;0.77;0.50;;;14.40;99.90;;;;;;5091639;28;20020;-82
2022/07/12 02:40:54;;;;;;;0.57;0.57;;;14.40;99.90;;;;;;5091651;28;20020;-82
2022/07/12 02:43:24;;;;;;;0.93;0.65;;;14.40;99.90;;;;;;5091916;28;20036;-81
2022/07/12 02:45:51;;;;;;;0.52;0.30;;;14.40;99.90;;;;;;5092843;28;20023;-82
2022/07/12 02:48:17;;;;;;;0.73;0.43;;;14.40;99.90;;;;;;5092846;28;20024;-83
2022/07/12 02:50:43;;;;;;;0.38;0.38;;;14.30;99.90;;;;;;5091578;28;20134;-83
2022/07/12 02:53:10;;;;;;;0.30;0.30;;;14.20;99.90;;;;;;5092756;28;20027;-82
2022/07/12 02:55:35;;;;;;;0.55;0.35;;;14.20;99.90;;;;;;5091575;28;20115;-82
2022/07/12 02:58:02;;;;;;;0.30;0.30;;;14.10;99.90;;;;;;5092661;28;20062;-82
2022/07/12 03:00:28;;;;;;;1.35;0.80;;;14.10;99.90;;;;;;5092553;28;20031;-83
2022/07/12 03:02:54;;;;;;;1.20;1.10;;;14.10;99.90;;;;;;5091574;28;20032;-82
2022/07/12 03:05:20;;;;;;;1.55;0.40;;;14.10;99.90;;;;;;5091223;28;20548;-82
2022/07/12 03:07:45;;;;;;;0.60;0.60;;;14.10;99.90;;;;;;5091169;28;20024;-82
2022/07/12 03:10:11;;;;;;;1.55;0.82;;;14.10;99.90;;;;;;5090983;28;20024;-83
2022/07/12 03:12:38;;;;;;;0.50;0.50;;;14.10;99.90;;;;;;5092441;28;20024;-83
2022/07/12 03:15:05;;;;;;;2.13;0.88;;;14.10;99.90;;;;;;5092249;28;20047;-82
2022/07/12 03:17:31;;;;;;;1.05;0.70;;;14.10;99.90;;;;;;5091038;28;20024;-83
2022/07/12 03:19:57;;;;;;;0.52;0.50;;;14.00;99.90;;;;;;5091172;28;20020;-83
2022/07/12 03:22:22;;;;;;;0.50;0.50;;;14.00;99.90;;;;;;5091060;28;20471;-83
2022/07/12 03:24:48;;;;;;;0.47;0.47;;;14.00;99.90;;;;;;5090847;28;20391;-83
2022/07/12 03:27:14;;;;;;;1.13;0.68;;;14.00;99.90;;;;;;5090999;28;20481;-83
2022/07/12 03:29:39;;;;;;;0.40;0.40;;;14.00;99.90;;;;;;5092086;28;20031;-83
2022/07/12 03:32:06;;;;;;;0.50;0.50;;;13.90;99.90;;;;;;5092295;28;20036;-82
2022/07/12 03:34:32;;;;;;;1.85;0.52;;;13.80;99.90;;;;;;5090953;28;20024;-82
2022/07/12 03:36:58;;;;;;;1.42;0.50;;;13.80;99.90;;;;;;5089818;28;20032;-82
2022/07/12 03:39:24;;;;;;;0.75;0.63;;;13.90;99.90;;;;;;5092188;28;20028;-82
2022/07/12 03:41:50;;;;;;;0.70;0.70;;;13.90;99.90;;;;;;5092110;28;20409;-83
2022/07/12 03:44:15;;;;;;;0.35;0.35;;;13.80;99.90;;;;;;5090761;28;20032;-83
2022/07/12 03:46:41;;;;;;;0.40;0.40;;;13.80;99.90;;;;;;5091023;28;20063;-82
2022/07/12 03:49:07;;;;;;;1.17;0.50;;;13.70;99.90;;;;;;5091967;28;20039;-82
2022/07/12 03:51:32;;;;;;;0.50;0.50;;;13.70;99.90;;;;;;5090940;28;20054;-83
2022/07/12 03:53:58;;;;;;;0.60;0.60;;;13.70;99.90;;;;;;5092001;28;20093;-83
2022/07/12 03:59:08;;;;;;;3.08;0.57;;;13.70;99.90;;;;;;5091791;28;20131;-83
2022/07/12 04:01:33;;;;;;;0.38;0.38;;;13.70;99.90;;;;;;5090384;28;20538;-82
2022/07/12 04:03:59;;;;;;;0.40;0.40;;;13.70;99.90;;;;;;5091580;28;20083;-83
2022/07/12 04:06:25;;;;;;;0.70;0.70;;;13.80;99.90;;;;;;5090641;28;20060;-83
2022/07/12 04:08:50;;;;;;;0.40;0.40;;;13.80;99.90;;;;;;5091866;28;20034;-83
2022/07/12 04:11:16;;;;;;;0.40;0.40;;;13.90;99.90;;;;;;5091696;28;20015;-82
2022/07/12 04:13:42;;;;;;;0.50;0.50;;;13.90;99.90;;;;;;5090452;28;20375;-83
2022/07/12 04:16:08;;;;;;;1.58;0.52;;;14.00;99.90;;;;;;5090320;28;20023;-81
2022/07/12 04:18:33;;;;;;;1.17;0.70;;;14.10;99.90;;;;;;5090815;28;20435;-83
2022/07/12 04:20:59;;;;;;;0.63;0.50;;;14.10;99.90;;;;;;5090556;28;20028;-82
2022/07/12 04:23:25;;;;;;;3.42;0.68;;;14.10;99.90;;;;;;5090465;28;20032;-83
2022/07/12 04:25:51;;;;;;;1.23;0.98;;;14.20;99.90;;;;;;5090515;28;20489;-82
2022/07/12 04:28:17;;;;;;;0.50;0.40;;;14.20;99.90;;;;;;5090294;28;20068;-83
2022/07/12 04:30:44;;;;;;;0.30;0.30;;;14.30;99.90;;;;;;5092152;28;20028;-83
2022/07/12 04:33:10;;;;;;;0.60;0.50;;;14.20;99.90;;;;;;5091091;28;20024;-83
2022/07/12 04:35:36;;;;;;;0.60;0.32;;;14.20;99.90;;;;;;5090961;28;20018;-83
2022/07/12 04:38:02;;;;;;;0.65;0.40;;;14.20;99.90;;;;;;5091988;28;20035;-83
2022/07/12 04:40:28;;;;;;;1.00;0.50;;;14.20;99.90;;;;;;5091958;28;20378;-83
2022/07/12 04:42:54;;;;;;;0.55;0.55;;;14.20;99.90;;;;;;5091495;28;20095;-83
2022/07/12 04:45:20;;;;;;;3.67;0.95;;;14.20;99.90;;;;;;5091903;28;20941;-82
2022/07/12 04:47:45;;;;;;;3.75;0.50;;;14.20;99.90;;;;;;5091567;28;20467;-82
2022/07/12 04:50:11;;;;;;;0.65;0.65;;;14.30;99.90;;;;;;5093797;28;20490;-82
2022/07/12 04:52:37;;;;;;;1.05;0.82;;;14.40;99.90;;;;;;5093969;28;20032;-83
2022/07/12 04:55:03;;;;;;;1.05;0.63;;;14.40;99.90;;;;;;5095041;28;20077;-83
2022/07/12 04:57:29;;;;;;;1.55;0.82;;;14.50;99.90;;;;;;5093852;28;20024;-82
2022/07/12 04:59:54;;;;;;;1.60;0.70;;;14.70;99.90;;;;;;5095391;28;20023;-82
2022/07/12 05:02:20;;;;;;;0.40;0.40;;;14.80;99.90;;;;;;5095396;28;20024;-80
2022/07/12 05:04:46;;;;;;;1.02;0.65;;;15.10;99.90;;;;;;5093207;28;20052;-80
2022/07/12 05:07:11;;;;;;;0.77;0.57;;;15.40;99.90;;;;;;5094965;28;20383;-79
2022/07/12 05:09:37;;;;;;;0.63;0.63;;;15.90;99.90;;;;;;5096179;28;20127;-80
2022/07/12 05:12:03;;;;;;;1.02;0.82;;;;;;;;;;5095987;28;20020;-80
2022/07/12 05:14:29;;;;;;;0.93;0.90;;;16.60;99.90;;;;;;5094611;28;20539;-79
2022/07/12 05:16:55;;;;;;;1.15;0.65;;;16.80;99.90;;;;;;5094870;28;20016;-79
2022/07/12 05:19:21;;;;;;;0.60;0.60;;;17.10;99.90;;;;;;5093270;28;20063;-80
2022/07/12 05:21:46;;;;;;;1.90;0.70;;;17.10;99.90;;;;;;5094593;28;20051;-79
2022/07/12 05:24:12;;;;;;;1.98;0.77;;;17.00;99.90;;;;;;5094467;28;20036;-79
2022/07/12 05:26:38;;;;;;;0.30;0.30;;;17.20;99.90;;;;;;5094519;28;20024;-79
2022/07/12 05:29:03;;;;;;;0.70;0.70;;;17.30;99.90;;;;;;5093142;28;20032;-78
2022/07/12 05:31:29;;;;;;;3.38;0.95;;;17.50;99.90;;;;;;5093001;28;20464;-79
2022/07/12 05:33:55;;;;;;;1.17;0.60;;;17.60;99.90;;;;;;5094459;28;20030;-79
2022/07/12 05:36:20;;;;;;;2.13;0.70;;;17.60;99.90;;;;;;5093069;28;20379;-79
2022/07/12 05:38:46;;;;;;;0.55;0.40;;;17.50;99.90;;;;;;5094053;28;20081;-80
2022/07/12 05:41:12;;;;;;;0.73;0.55;;;17.60;99.90;;;;;;5094213;28;20385;-79
2022/07/12 05:43:38;;;;;;;0.60;0.60;;;17.60;99.80;;;;;;5094123;28;20024;-79
2022/07/12 05:46:05;;;;;;;0.68;0.50;;;17.60;99.50;;;;;;5093967;28;20046;-78
2022/07/12 05:48:30;;;;;;;1.13;0.80;;;17.40;99.80;;;;;;5094009;28;20077;-79
2022/07/12 05:53:21;;;;;;;1.13;0.68;;;17.40;99.90;;;;;;5094033;28;20016;-79
2022/07/12 05:53:42;;;;;;;1.30;1.23;;;17.60;99.90;;;;;;5094012;28;20023;-79
2022/07/12 05:56:07;;;;;;;1.02;0.95;;;17.90;99.40;;;;;;5093744;28;20789;-79
2022/07/12 05:58:33;;;;;;;0.93;0.50;;;18.00;99.10;;;;;;5091928;28;20028;-79
2022/07/12 06:00:59;;;;;;;4.25;0.57;;;17.80;98.70;;;;;;5093408;28;20024;-78
2022/07/12 06:03:24;;;;;;;0.47;0.35;;;17.70;98.80;;;;;;5093620;28;20534;-78
2022/07/12 06:05:50;;;;;;;2.28;0.70;;;17.60;98.80;;;;;;5093667;28;20050;-79
2022/07/12 06:08:16;;;;;;;0.68;0.40;;;17.70;98.70;;;;;;5093624;28;20035;-79
2022/07/12 06:10:42;;;;;;;1.23;0.63;;;17.80;98.50;;;;;;5093449;28;20017;-79
2022/07/12 06:13:09;;;;;;;1.48;0.43;;;17.90;98.20;;;;;;5093564;28;20035;-79
2022/07/12 06:15:35;;;;;;;0.55;0.55;;;18.00;98.10;;;;;;5092242;28;20035;-78
2022/07/12 06:18:02;;;;;;;0.60;0.60;;;;;;;;;;5093573;28;20383;-79
2022/07/12 06:20:29;;;;;;;0.80;0.50;;;18.20;97.70;;;;;;5092055;28;20021;-79
2022/07/12 06:22:55;;;;;;;1.48;0.73;;;18.30;97.10;;;;;;5093336;28;20670;-80
2022/07/12 06:25:21;;;;;;;0.90;0.47;;;18.30;96.80;;;;;;5093517;28;20463;-79
2022/07/12 06:27:47;;;;;;;3.15;0.80;;;18.30;96.30;;;;;;5093532;28;20103;-79
2022/07/12 06:30:18;;;;;;;0.43;0.40;;;18.30;96.10;;;;;;5093274;28;20052;-78
2022/07/12 06:32:48;;;;;;;1.48;0.50;;;18.20;95.30;;;;;;5091989;28;20413;-79
2022/07/12 06:35:14;;;;;;;1.52;0.75;;;18.30;94.90;;;;;;5093388;28;20094;-79
2022/07/12 06:37:41;;;;;;;2.15;1.05;;;18.30;94.90;;;;;;5092921;28;20024;-79
2022/07/12 06:40:08;;;;;;;1.00;1.00;;;18.40;94.90;;;;;;5093119;28;20024;-78
2022/07/12 06:42:34;;;;;;;1.98;0.80;;;18.40;94.90;;;;;;5092861;28;20024;-78
2022/07/12 06:45:00;;;;;;;1.67;0.68;;;18.40;95.30;;;;;;5093087;28;20060;-79
2022/07/12 06:47:26;;;;;;;1.00;0.57;;;18.40;95.00;;;;;;5091854;28;20501;-79
2022/07/12 06:49:51;;;;;;;0.70;0.70;;;18.40;95.20;;;;;;5092958;28;20413;-80
2022/07/12 06:52:17;;;;;;;1.15;0.65;;;18.30;95.20;;;;;;5092937;28;20455;-79
2022/07/12 06:54:43;;;;;;;3.13;0.60;;;18.30;94.90;;;;;;5092792;28;20023;-79
2022/07/12 06:57:09;;;;;;;1.05;0.80;;;18.20;95.50;;;;;;5092636;28;20464;-79
2022/07/12 06:59:34;;;;;;;1.00;0.70;;;18.20;95.90;;;;;;5090983;28;20502;-79
2022/07/12 07:02:01;;;;;;;1.77;0.77;;;18.10;95.70;;;;;;5092702;28;20069;-79
2022/07/12 07:04:26;;;;;;;3.13;1.00;;;18.00;95.90;;;;;;5091068;28;20087;-79
2022/07/12 07:06:52;;;;;;;1.27;0.93;;;18.10;96.30;;;;;;5092644;28;20059;-80
2022/07/12 07:09:18;;;;;;;1.52;0.70;;;18.10;96.70;;;;;;5091797;28;20023;-81
2022/07/12 07:11:44;;;;;;;0.52;0.52;;;18.10;97.00;;;;;;5093332;28;20125;-79
2022/07/12 07:14:10;;;;;;;0.57;0.55;;;18.10;97.90;;;;;;5091431;28;20083;-79
2022/07/12 07:16:36;;;;;;;2.53;0.60;;;18.20;98.90;;;;;;5092198;28;20024;-79
2022/07/12 07:19:02;;;;;;;0.98;0.50;;;18.20;99.70;;;;;;5092449;28;20428;-79
2022/07/12 07:21:29;;;;;;;8.27;1.00;;;18.30;99.90;;;;;;5092102;28;20115;-79
2022/07/12 07:23:55;;;;;;;0.40;0.40;;;18.30;99.90;;;;;;5091718;28;20169;-78
2022/07/12 07:26:21;;;;;;;0.35;0.35;;;18.50;99.90;;;;;;5089957;28;20024;-79
2022/07/12 07:31:35;;;;;;;0.55;0.47;;;18.80;99.90;;;;;;5092365;28;20031;-79
2022/07/12 07:34:01;;;;;;;0.50;0.50;;;18.70;99.90;;;;;;5092020;28;20024;-79
2022/07/12 07:36:27;;;;;;;1.15;0.75;;;18.60;99.90;;;;;;5092357;28;20459;-79
2022/07/12 07:38:53;;;;;;;1.85;1.23;;;18.40;99.90;;;;;;5092189;28;20034;-79
2022/07/12 07:41:18;;;;;;;3.63;1.20;;;18.30;99.90;;;;;;5092458;28;20158;-77
2022/07/12 07:43:44;;;;;;;0.50;0.50;;;18.20;99.90;;;;;;5092160;28;20032;-80
2022/07/12 07:46:10;;;;;;;0.35;0.35;;;18.10;99.90;;;;;;5092103;28;20024;-78
2022/07/12 07:48:35;;;;;;;0.82;0.63;;;18.10;99.90;;;;;;5092006;28;20039;-79
2022/07/12 07:51:01;;;;;;;0.47;0.47;;;18.10;99.90;;;;;;5090573;28;20435;-80
2022/07/12 07:53:27;;;;;;;0.95;0.60;;;18.10;99.90;;;;;;5090825;28;20051;-80
2022/07/12 07:55:53;;;;;;;4.18;0.50;;;18.10;99.90;;;;;;5091486;28;20066;-80
2022/07/12 07:58:20;;;;;;;0.73;0.52;;;18.10;99.90;;;;;;5090122;28;20021;-80
2022/07/12 08:00:47;;;;;;;0.57;0.57;;;18.10;99.90;;;;;;5091858;28;20020;-81
2022/07/12 08:03:13;;;;;;;0.70;0.55;;;18.10;99.90;;;;;;5090454;28;20038;-81
2022/07/12 08:05:38;;;;;;;1.45;1.00;;;18.00;99.90;;;;;;5091772;28;20047;-82
2022/07/12 08:08:04;;;;;;;1.58;1.05;;;18.00;99.90;;;;;;5091854;28;20031;-81
2022/07/12 08:10:30;;;;;;;1.17;0.77;;;18.10;99.90;;;;;;5091954;28;20024;-80
2022/07/12 08:12:56;;;;;;;0.70;0.63;;;18.20;99.90;;;;;;5092035;28;20445;-80
2022/07/12 08:15:22;;;;;;;0.50;0.50;;;18.30;99.90;;;;;;5089994;28;20020;-82
2022/07/12 08:17:49;;;;;;;1.55;0.50;;;18.30;99.90;;;;;;5091853;28;20403;-81
2022/07/12 08:20:14;;;;;;;1.90;0.63;;;18.40;99.90;;;;;;5090481;28;20025;-81
2022/07/12 08:22:45;;;;;;;1.40;0.70;;;18.60;99.90;;;;;;5093025;28;20085;-80
2022/07/12 08:25:11;;;;;;;1.05;1.02;;;18.70;99.90;;;;;;5094303;28;20039;-81
2022/07/12 08:27:36;;;;;;;1.50;0.43;;;18.90;99.90;;;;;;5094501;28;20030;-81
2022/07/12 08:30:02;;;;;;;1.50;0.47;;;19.20;99.90;;;;;;5094547;28;20024;-81
2022/07/12 08:32:28;;;;;;;1.98;0.50;;;19.30;99.90;;;;;;5096173;28;20124;-83
2022/07/12 08:34:54;;;;;;;0.68;0.52;;;19.80;99.90;;;;;;5094554;28;20542;-79
2022/07/12 08:37:20;;;;;;;1.00;0.60;;;;;;;;;;5095780;28;20081;-83
2022/07/12 08:39:45;;;;;;;1.02;0.50;;;20.20;99.90;;;;;;5095451;28;20360;-77
2022/07/12 08:42:16;;;;;;;0.85;0.20;;;20.30;99.60;;;;;;5095405;28;20039;-78
2022/07/12 08:44:43;;;;;;;1.10;0.30;;;20.50;99.90;;;;;;5094221;28;20055;-76
2022/07/12 08:47:08;;;;;;;1.25;0.28;;;20.60;97.80;;;;;;5095432;28;20024;-76
2022/07/12 08:49:36;;;;;;;1.38;0.55;;;20.60;96.80;;;;;;5095417;28;20023;-78
2022/07/12 08:52:25;;;;;;;0.60;0.60;;;20.50;99.90;;;;;;5095452;28;20024;-83
2022/07/12 08:54:51;;;;;;;1.50;0.60;;;20.40;99.90;;;;;;5095761;28;20115;-88
2022/07/12 08:57:30;;;;;;;0.40;0.40;;;20.20;99.90;;;;;;5095767;28;20444;-89
2022/07/12 09:00:03;;;;;;;0.55;0.45;;;20.20;99.90;;;;;;5095873;28;20049;-83
2022/07/12 09:02:45;;;;;;;0.60;0.60;;;19.90;99.90;;;;;;5095536;28;20024;-83
2022/07/12 09:05:12;;;;;;;2.30;0.60;;;19.80;99.90;;;;;;5095330;28;20052;-83
2022/07/12 09:07:38;;;;;;;3.00;0.70;;;19.80;99.90;;;;;;5096335;28;20483;-84
2022/07/12 09:10:06;;;;;;;0.82;0.70;;;19.90;99.90;;;;;;5094956;28;20024;-80
2022/07/12 09:12:34;;;;;;;1.08;1.02;;;19.90;99.90;;;;;;5095382;28;20020;-83
2022/07/12 09:15:19;;;;;;;0.50;0.50;;;19.80;99.90;;;;;;5096563;28;20040;-85
2022/07/12 09:17:48;;;;;;;0.30;0.30;;;19.80;99.90;;;;;;5095794;28;20039;-85
2022/07/12 09:20:15;;;;;;;0.93;0.68;;;19.90;98.70;;;;;;5095045;28;20020;-84
2022/07/12 09:23:04;;;;;;;1.88;0.50;;;20.00;98.40;;;;;;5096430;28;20024;-86
2022/07/12 09:25:31;;;;;;;0.75;0.75;;;20.10;98.50;;;;;;5094670;28;20044;-83
2022/07/12 09:27:58;;;;;;;1.15;0.50;;;20.30;99.90;;;;;;5094457;28;20027;-82
2022/07/12 09:30:27;;;;;;;1.05;0.38;;;20.30;99.90;;;;;;5093898;28;20040;-81
2022/07/12 09:36:07;;;;;;;0.77;0.45;;;20.70;99.90;;;;;;5094444;28;20051;-86
2022/07/12 09:38:37;;;;;;;3.85;0.43;;;20.70;95.10;;;;;;5094143;28;20062;-82
2022/07/12 09:41:07;;;;;;;0.38;0.30;;;20.80;94.70;;;;;;5094273;28;20028;-87
2022/07/12 09:43:34;;;;;;;0.38;0.38;;;21.00;93.50;;;;;;5094932;28;20028;-83
2022/07/12 09:46:00;;;;;;;2.17;0.65;;;21.30;93.50;;;;;;5093762;28;20028;-86
2022/07/12 09:48:29;;;;;;;1.45;0.50;;;21.70;92.80;;;;;;5094843;28;20107;-88
2022/07/12 09:50:57;;;;;;;1.17;0.30;;;22.00;91.80;;;;;;5094837;28;20024;-80
2022/07/12 09:53:47;;;;;;;1.20;0.38;;;22.20;90.10;;;;;;5093684;28;20035;-88
2022/07/12 09:56:17;;;;;;;0.30;0.30;;;22.20;88.90;;;;;;5081696;28;20483;-79
2022/07/12 09:58:51;;;;;;;0.20;0.20;;;22.30;88.60;;;;;;5094606;28;20078;-79
2022/07/12 10:01:18;;;;;;;0.45;0.20;;;22.30;85.60;;;;;;5093894;28;20044;-79
2022/07/12 10:03:45;;;;;;;0.30;0.30;;;22.40;85.70;;;;;;5093579;28;20035;-88
2022/07/12 10:06:15;;;;;;;0.20;0.20;;;22.60;87.70;;;;;;5094759;28;20122;-88
2022/07/12 10:08:40;;;;;;;0.65;0.30;;;22.60;82.70;;;;;;5092141;28;20032;-82
2022/07/12 10:11:07;;;;;;;1.45;0.40;;;22.60;86.80;;;;;;5094131;28;20471;-83
2022/07/12 10:13:33;;;;;;;0.47;0.28;;;22.80;83.10;;;;;;5092682;28;20479;-79
2022/07/12 10:16:03;;;;;;;0.57;0.57;;;23.10;84.90;;;;;;5092817;28;20024;-84
2022/07/12 10:18:29;;;;;;;0.40;0.30;;;23.20;78.00;;;;;;5093895;28;20046;-85
2022/07/12 10:20:55;;;;;;;0.30;0.30;;;23.10;90.90;;;;;;5092306;28;20024;-80
2022/07/12 10:23:35;;;;;;;0.80;0.30;;;23.20;85.90;;;;;;5093193;28;20028;-79
2022/07/12 10:26:16;;;;;;;0.50;0.50;;;23.20;87.20;;;;;;5093377;28;20378;-79
2022/07/12 10:29:05;;;;;;;1.08;0.50;;;23.20;86.60;;;;;;5092466;28;20387;-80
2022/07/12 10:31:34;;;;;;;0.30;0.20;;;;;;;;;;5093163;28;20023;-79
2022/07/12 10:34:24;;;;;;;2.85;0.47;;;23.50;76.60;;;;;;5091890;28;20081;-80
2022/07/12 10:36:56;;;;;;;0.55;0.50;;;23.90;77.30;;;;;;5092788;28;20431;-79
2022/07/12 10:39:23;;;;;;;0.30;0.30;;;24.20;75.20;;;;;;5093294;28;20028;-79
2022/07/12 10:42:05;;;;;;;1.00;0.40;;;24.30;70.70;;;;;;5092626;28;20012;-81
2022/07/12 10:44:41;;;;;;;0.47;0.40;;;;;;;;;;5093216;28;20115;-79
2022/07/12 10:47:08;;;;;;;0.50;0.40;;;24.60;72.40;;;;;;5091987;28;20031;-80
2022/07/12 10:49:35;;;;;;;3.78;0.50;;;24.90;73.90;;;;;;5091472;28;20497;-81
2022/07/12 10:52:10;;;;;;;1.45;0.35;;;25.20;70.90;;;;;;5092699;28;20491;-79
2022/07/12 10:54:54;;;;;;;2.80;0.73;;;25.30;70.00;;;;;;5092912;28;20020;-80
2022/07/12 10:57:43;;;;;;;4.82;0.50;;;25.20;71.00;;;;;;5091764;28;20085;-79
2022/07/12 11:00:13;;;;;;;0.50;0.50;;;25.20;69.70;;;;;;5092743;28;20020;-80
2022/07/12 11:02:39;;;;;;;1.30;0.20;;;25.40;65.30;;;;;;5092764;28;20030;-78
2022/07/12 11:05:05;;;;;;;0.32;0.20;;;;;;;;;;5092469;28;20047;-78
2022/07/12 11:07:31;;;;;;;1.95;0.25;;;25.80;64.60;;;;;;5091283;28;20073;-79
2022/07/12 11:09:57;;;;;;;0.35;0.30;;;26.10;63.20;;;;;;5092396;28;20024;-78
2022/07/12 11:12:32;;;;;;;0.65;0.40;;;26.00;64.80;;;;;;5091699;28;20106;-79
2022/07/12 11:14:59;;;;;;;0.40;0.30;;;25.80;63.80;;;;;;5092743;28;20028;-80
2022/07/12 11:17:26;;;;;;;0.22;0.22;;;25.50;64.10;;;;;;5091082;28;20501;-77
2022/07/12 11:20:04;;;;;;;0.28;0.25;;;25.30;63.20;;;;;;5092274;28;20016;-78
2022/07/12 11:22:31;;;;;;;0.65;0.40;;;25.00;63.90;;;;;;5092494;28;20597;-76
2022/07/12 11:24:59;;;;;;;0.40;0.38;;;24.90;63.90;;;;;;5092538;28;20035;-78
2022/07/12 11:27:28;;;;;;;0.20;0.20;;;24.70;66.30;;;;;;5092074;28;20044;-77
2022/07/12 11:30:01;;;;;;;1.73;0.50;;;24.60;65.80;;;;;;5092276;28;20044;-77
2022/07/12 11:32:39;;;;;;;0.30;0.20;;;24.40;65.40;;;;;;5092161;28;20019;-77
2022/07/12 11:35:16;;;;;;;0.38;0.38;;;24.30;65.70;;;;;;5091022;28;20475;-78
2022/07/12 11:37:50;;;;;;;0.30;0.22;;;24.10;69.20;;;;;;5092389;28;20468;-79
2022/07/12 11:40:22;;;;;;;0.30;0.30;;;24.10;68.10;;;;;;5092136;28;20111;-78
2022/07/12 11:42:58;;;;;;;0.68;0.43;;;24.10;70.80;;;;;;5091737;28;20016;-77
2022/07/12 11:45:26;;;;;;;0.20;0.20;;;24.10;68.30;;;;;;5090964;28;20037;-77
2022/07/12 11:47:52;;;;;;;0.90;0.35;;;24.00;68.60;;;;;;5091810;28;20104;-78
2022/07/12 11:50:19;;;;;;;1.27;0.57;;;23.90;67.00;;;;;;5092293;28;20107;-78
2022/07/12 11:52:44;;;;;;;3.10;0.40;;;23.90;68.10;;;;;;5092165;28;20082;-78
2022/07/12 11:55:10;;;;;;;1.55;0.40;;;24.00;67.70;;;;;;5092174;28;20028;-78
2022/07/12 11:57:36;;;;;;;0.40;0.28;;;24.10;67.80;;;;;;5093535;28;20028;-77
2022/07/12 12:00:17;;;;;;;0.47;0.40;;;24.10;68.10;;;;;;5095994;28;20024;-77
2022/07/12 12:02:44;;;;;;;0.63;0.50;;;24.30;67.30;;;;;;5096468;28;20103;-78
2022/07/12 12:05:11;;;;;;;0.50;0.50;;;24.50;67.50;;;;;;5094672;28;20072;-79
2022/07/12 12:07:37;;;;;;;2.78;0.30;;;24.60;66.60;;;;;;5096336;28;20018;-78
2022/07/12 12:10:13;;;;;;;0.50;0.50;;;24.70;66.40;;;;;;5096247;28;20103;-78
2022/07/12 12:12:53;;;;;;;1.55;0.50;;;24.70;66.40;;;;;;5096095;28;20031;-78
2022/07/12 12:15:20;;;;;;;0.40;0.30;;;24.60;66.60;;;;;;5096048;28;20023;-77
2022/07/12 12:17:55;;;;;;;0.10;0.10;;;24.50;66.00;;;;;;5096054;28;20408;-77
2022/07/12 12:20:22;;;;;;;;;;;24.70;65.10;;;;;;5096435;28;20043;-78
2022/07/12 12:22:55;;;;;;;0.30;0.30;;;24.50;64.20;;;;;;5095961;28;19958;-79
2022/07/12 12:25:22;;;;;;;0.50;0.50;;;24.40;65.30;;;;;;5095737;28;20039;-78
2022/07/12 12:27:57;;;;;;;0.45;0.32;;;24.40;64.60;;;;;;5095960;28;20028;-77
2022/07/12 12:30:23;;;;;;;0.52;0.25;;;24.30;63.90;;;;;;5095801;28;20032;-79
2022/07/12 12:32:54;;;;;;;0.30;0.30;;;24.30;63.80;;;;;;5095736;28;20475;-78
2022/07/12 12:35:33;;;;;;;1.52;0.60;;;24.20;63.20;;;;;;5095800;28;20020;-78
2022/07/12 12:38:01;;;;;;;0.30;0.30;;;24.20;65.10;;;;;;5095557;28;20032;-78
2022/07/12 12:40:29;;;;;;;0.15;0.15;;;24.10;65.00;;;;;;5094421;28;20024;-77
2022/07/12 12:43:10;;;;;;;0.20;0.20;;;24.00;64.90;;;;;;5095467;28;20020;-78
2022/07/12 12:45:48;;;;;;;1.23;0.60;;;24.00;65.40;;;;;;5095359;28;20059;-78
2022/07/12 12:48:21;;;;;;;0.20;0.20;;;23.90;64.40;;;;;;5094107;28;20024;-77
2022/07/12 12:50:47;;;;;;;0.40;0.40;;;;;;;;;;5095232;28;20024;-78
2022/07/12 12:53:25;;;;;;;0.70;0.40;;;24.30;64.60;;;;;;5095318;28;20024;-78
2022/07/12 12:55:52;;;;;;;0.25;0.25;;;24.70;65.50;;;;;;5095205;28;20035;-77
2022/07/12 12:58:20;;;;;;;0.30;0.30;;;24.80;65.30;;;;;;5093695;28;20016;-78
2022/07/12 13:00:47;;;;;;;0.50;0.30;;;24.80;63.40;;;;;;5094664;28;20039;-77
2022/07/12 13:03:17;;;;;;;3.63;0.28;;;24.60;63.00;;;;;;5094529;28;20012;-77